sensor_id;sensor_type;location;lat;lon;timestamp;pressure;altitude;pressure_sealevel;temperature;humidity
26539;BME280;14205;43.200;24.170;2023-08-12T00:01:23;81742.25;;;-137.44;100.00
26539;BME280;14205;43.200;24.170;2023-08-12T00:03:50;80189.66;;;-137.44;100.00
26539;BME280;14205;43.200;24.170;2023-08-12T00:06:15;84590.47;;;-137.44;100.00
26539;BME280;14205;43.200;24.170;2023-08-12T00:08:41;83295.53;;;-137.44;100.00
26539;BME280;14205;43.200;24.170;2023-08-12T00:11:06;88218.88;;;-137.44;100.00
26539;BME280;14205;43.200;24.170;2023-08-12T00:13:32;87700.28;;;-137.44;100.00
26539;BME280;14205;43.200;24.170;2023-08-12T00:15:57;83554.47;;;-137.44;100.00
26539;BME280;14205;43.200;24.170;2023-08-12T00:18:23;88996.88;;;-137.44;100.00
26539;BME280;14205;43.200;24.170;2023-08-12T00:20:48;80965.88;;;-137.44;100.00
26539;BME280;14205;43.200;24.170;2023-08-12T00:23:14;86404.19;;;-137.44;100.00
26539;BME280;14205;43.200;24.170;2023-08-12T00:25:39;95227.28;;;-137.44;100.00
26539;BME280;14205;43.200;24.170;2023-08-12T00:28:05;99387.09;;;-137.44;100.00
26539;BME280;14205;43.200;24.170;2023-08-12T00:30:30;98866.84;;;-137.44;100.00
26539;BME280;14205;43.200;24.170;2023-08-12T00:32:56;93668.63;;;-137.44;100.00
26539;BME280;14205;43.200;24.170;2023-08-12T00:35:21;95487.13;;;-137.44;100.00
26539;BME280;14205;43.200;24.170;2023-08-12T00:37:46;96786.63;;;-137.44;100.00
26539;BME280;14205;43.200;24.170;2023-08-12T00:40:12;95227.28;;;-137.44;100.00
26539;BME280;14205;43.200;24.170;2023-08-12T00:42:38;97826.59;;;-137.44;100.00
26539;BME280;14205;43.200;24.170;2023-08-12T00:45:09;97046.59;;;-137.44;100.00
26539;BME280;14205;43.200;24.170;2023-08-12T00:47:35;98086.63;;;-137.44;100.00
26539;BME280;14205;43.200;24.170;2023-08-12T00:50:01;103291.47;;;-137.44;100.00
26539;BME280;14205;43.200;24.170;2023-08-12T00:52:27;101989.53;;;-137.44;100.00
26539;BME280;14205;43.200;24.170;2023-08-12T00:54:52;99387.09;;;-137.44;100.00
26539;BME280;14205;43.200;24.170;2023-08-12T00:57:18;104072.88;;;-137.44;100.00
26539;BME280;14205;43.200;24.170;2023-08-12T00:59:44;104072.88;;;-137.44;100.00
26539;BME280;14205;43.200;24.170;2023-08-12T01:02:12;100688.06;;;-137.44;100.00
26539;BME280;14205;43.200;24.170;2023-08-12T01:04:37;97566.56;;;-137.44;100.00
26539;BME280;14205;43.200;24.170;2023-08-12T01:07:03;101989.53;;;-137.44;100.00
26539;BME280;14205;43.200;24.170;2023-08-12T01:09:29;102770.63;;;-137.44;100.00
26539;BME280;14205;43.200;24.170;2023-08-12T01:17:22;107460.94;;;-137.44;100.00
26539;BME280;14205;43.200;24.170;2023-08-12T01:19:49;104333.38;;;-137.44;100.00
26539;BME280;14205;43.200;24.170;2023-08-12T01:22:16;103291.47;;;-137.44;100.00
26539;BME280;14205;43.200;24.170;2023-08-12T01:24:43;101468.88;;;-137.44;100.00
26539;BME280;14205;43.200;24.170;2023-08-12T01:27:10;101729.19;;;-137.44;100.00
26539;BME280;14205;43.200;24.170;2023-08-12T01:29:47;100688.06;;;-137.44;100.00
26539;BME280;14205;43.200;24.170;2023-08-12T01:37:27;101468.88;;;-137.44;100.00
26539;BME280;14205;43.200;24.170;2023-08-12T01:39:54;100167.63;;;-137.44;100.00
26539;BME280;14205;43.200;24.170;2023-08-12T01:42:20;101989.53;;;-137.44;100.00
26539;BME280;14205;43.200;24.170;2023-08-12T01:44:46;105115.00;;;-137.44;100.00
26539;BME280;14205;43.200;24.170;2023-08-12T01:47:13;108764.94;;;-137.44;100.00
26539;BME280;14205;43.200;24.170;2023-08-12T01:49:39;111113.34;;;-137.44;100.00
26539;BME280;14205;43.200;24.170;2023-08-12T01:52:04;109286.66;;;-137.44;100.00
26539;BME280;14205;43.200;24.170;2023-08-12T01:54:30;104333.38;;;-137.44;100.00
26539;BME280;14205;43.200;24.170;2023-08-12T01:57:01;104854.44;;;-137.44;100.00
26539;BME280;14205;43.200;24.170;2023-08-12T01:59:27;104072.88;;;-137.44;100.00
26539;BME280;14205;43.200;24.170;2023-08-12T02:01:52;100167.63;;;-137.44;100.00
26539;BME280;14205;43.200;24.170;2023-08-12T02:04:17;99907.44;;;-137.44;100.00
26539;BME280;14205;43.200;24.170;2023-08-12T02:06:43;94188.09;;;-137.44;100.00
26539;BME280;14205;43.200;24.170;2023-08-12T02:09:08;100167.63;;;-137.44;100.00
26539;BME280;14205;43.200;24.170;2023-08-12T02:11:34;100167.63;;;-137.44;100.00
26539;BME280;14205;43.200;24.170;2023-08-12T02:13:59;101468.88;;;-137.44;100.00
26539;BME280;14205;43.200;24.170;2023-08-12T02:16:24;104333.38;;;-137.44;100.00
26539;BME280;14205;43.200;24.170;2023-08-12T02:18:50;104593.91;;;-137.44;100.00
26539;BME280;14205;43.200;24.170;2023-08-12T02:21:15;109547.56;;;-137.44;100.00
26539;BME280;14205;43.200;24.170;2023-08-12T02:23:41;111374.34;;;-137.44;100.00
26539;BME280;14205;43.200;24.170;2023-08-12T02:26:09;114769.53;;;-137.44;100.00
26539;BME280;14205;43.200;24.170;2023-08-12T02:28:34;116076.22;;;-137.44;100.00
26539;BME280;14205;43.200;24.170;2023-08-12T02:31:00;115814.84;;;-137.44;100.00
26539;BME280;14205;43.200;24.170;2023-08-12T02:33:25;116860.50;;;-137.44;100.00
26539;BME280;14205;43.200;24.170;2023-08-12T02:35:53;117383.44;;;-137.44;100.00
26539;BME280;14205;43.200;24.170;2023-08-12T02:38:19;117383.44;;;-137.44;100.00
26539;BME280;14205;43.200;24.170;2023-08-12T02:40:48;116337.63;;;-137.44;100.00
26539;BME280;14205;43.200;24.170;2023-08-12T02:43:14;115030.81;;;-137.44;100.00
26539;BME280;14205;43.200;24.170;2023-08-12T02:45:39;117383.44;;;-137.44;100.00
26539;BME280;14205;43.200;24.170;2023-08-12T02:48:05;118429.53;;;-137.44;100.00
26539;BME280;14205;43.200;24.170;2023-08-12T02:50:31;118691.09;;;-137.44;100.00
26539;BME280;14205;43.200;24.170;2023-08-12T02:52:56;118691.09;;;-137.44;100.00
26539;BME280;14205;43.200;24.170;2023-08-12T02:55:21;118691.09;;;-137.44;100.00
26539;BME280;14205;43.200;24.170;2023-08-12T02:57:47;117906.44;;;-137.44;100.00
26539;BME280;14205;43.200;24.170;2023-08-12T03:00:13;111896.47;;;-137.44;100.00
26539;BME280;14205;43.200;24.170;2023-08-12T03:02:42;112157.56;;;-137.44;100.00
26539;BME280;14205;43.200;24.170;2023-08-12T09:00:59;49916.16;;;-137.44;41.48
26539;BME280;14205;43.200;24.170;2023-08-12T09:03:25;50056.41;;;-137.44;39.43
26539;BME280;14205;43.200;24.170;2023-08-12T09:05:51;49952.22;;;-137.44;40.13
26539;BME280;14205;43.200;24.170;2023-08-12T09:08:18;49990.28;;;-137.44;39.87
26539;BME280;14205;43.200;24.170;2023-08-12T09:10:46;50120.50;;;-137.44;38.21
26539;BME280;14205;43.200;24.170;2023-08-12T09:13:11;50062.41;;;-137.44;37.76
26539;BME280;14205;43.200;24.170;2023-08-12T09:15:38;50146.56;;;-137.44;37.69
26539;BME280;14205;43.200;24.170;2023-08-12T09:18:07;50014.31;;;-137.44;38.28
26539;BME280;14205;43.200;24.170;2023-08-12T09:20:36;50206.66;;;-137.44;36.97
26539;BME280;14205;43.200;24.170;2023-08-12T09:23:02;50012.31;;;-137.44;37.88
26539;BME280;14205;43.200;24.170;2023-08-12T09:25:28;50186.63;;;-137.44;36.50
26539;BME280;14205;43.200;24.170;2023-08-12T09:28:00;50196.63;;;-137.44;36.70
26539;BME280;14205;43.200;24.170;2023-08-12T09:30:28;50378.94;;;-137.44;35.61
26539;BME280;14205;43.200;24.170;2023-08-12T09:33:02;50234.69;;;-137.44;35.96
26539;BME280;14205;43.200;24.170;2023-08-12T09:35:40;50455.09;;;-137.44;35.09
26539;BME280;14205;43.200;24.170;2023-08-12T09:38:10;50242.72;;;-137.44;36.14
26539;BME280;14205;43.200;24.170;2023-08-12T09:40:36;50138.53;;;-137.44;36.50
26539;BME280;14205;43.200;24.170;2023-08-12T09:43:03;50495.16;;;-137.44;34.77
26539;BME280;14205;43.200;24.170;2023-08-12T09:45:30;50467.09;;;-137.44;35.06
26539;BME280;14205;43.200;24.170;2023-08-12T09:47:56;50595.34;;;-137.44;35.27
26539;BME280;14205;43.200;24.170;2023-08-12T09:50:23;50228.69;;;-137.44;36.18
26539;BME280;14205;43.200;24.170;2023-08-12T09:52:49;50457.09;;;-137.44;34.40
26539;BME280;14205;43.200;24.170;2023-08-12T09:55:16;50441.06;;;-137.44;34.72
26539;BME280;14205;43.200;24.170;2023-08-12T09:57:48;50717.56;;;-137.44;35.06
26539;BME280;14205;43.200;24.170;2023-08-12T10:00:16;50136.53;;;-137.44;36.84
26539;BME280;14205;43.200;24.170;2023-08-12T10:02:44;50382.97;;;-137.44;34.43
26539;BME280;14205;43.200;24.170;2023-08-12T10:05:12;50471.13;;;-137.44;33.77
26539;BME280;14205;43.200;24.170;2023-08-12T10:07:41;50499.16;;;-137.44;34.52
26539;BME280;14205;43.200;24.170;2023-08-12T10:10:07;50589.31;;;-137.44;33.03
26539;BME280;14205;43.200;24.170;2023-08-12T10:12:34;50639.41;;;-137.44;33.93
26539;BME280;14205;43.200;24.170;2023-08-12T10:15:01;50615.38;;;-137.44;33.77
26539;BME280;14205;43.200;24.170;2023-08-12T10:17:27;50451.09;;;-137.44;34.23
26539;BME280;14205;43.200;24.170;2023-08-12T10:19:56;50511.19;;;-137.44;34.52
26539;BME280;14205;43.200;24.170;2023-08-12T10:22:29;50563.28;;;-137.44;34.33
26539;BME280;14205;43.200;24.170;2023-08-12T10:24:56;50405.00;;;-137.44;34.22
26539;BME280;14205;43.200;24.170;2023-08-12T10:27:22;50609.38;;;-137.44;33.09
26539;BME280;14205;43.200;24.170;2023-08-12T10:29:49;50429.03;;;-137.44;34.07
26539;BME280;14205;43.200;24.170;2023-08-12T10:32:14;50635.41;;;-137.44;33.23
26539;BME280;14205;43.200;24.170;2023-08-12T10:34:40;50423.03;;;-137.44;33.79
26539;BME280;14205;43.200;24.170;2023-08-12T10:37:05;50312.84;;;-137.44;33.89
26539;BME280;14205;43.200;24.170;2023-08-12T10:39:33;50172.59;;;-137.44;34.31
26539;BME280;14205;43.200;24.170;2023-08-12T10:41:59;50465.09;;;-137.44;32.80
26539;BME280;14205;43.200;24.170;2023-08-12T10:44:51;50567.28;;;-137.44;32.11
26539;BME280;14205;43.200;24.170;2023-08-12T10:47:19;50407.00;;;-137.44;33.10
26539;BME280;14205;43.200;24.170;2023-08-12T10:49:49;50491.16;;;-137.44;32.33
26539;BME280;14205;43.200;24.170;2023-08-12T10:52:31;50667.47;;;-137.44;31.88
26539;BME280;14205;43.200;24.170;2023-08-12T10:57:45;50579.31;;;-137.44;31.32
26539;BME280;14205;43.200;24.170;2023-08-12T11:00:14;50505.19;;;-137.44;31.36
26539;BME280;14205;43.200;24.170;2023-08-12T11:02:44;50611.38;;;-137.44;30.91
26539;BME280;14205;43.200;24.170;2023-08-12T11:05:11;50825.78;;;-137.44;30.57
26539;BME280;14205;43.200;24.170;2023-08-12T11:07:43;50577.31;;;-137.44;31.28
26539;BME280;14205;43.200;24.170;2023-08-12T11:10:14;50875.88;;;-137.44;31.68
26539;BME280;14205;43.200;24.170;2023-08-12T11:12:41;50791.72;;;-137.44;32.03
26539;BME280;14205;43.200;24.170;2023-08-12T11:15:07;50893.91;;;-137.44;31.69
26539;BME280;14205;43.200;24.170;2023-08-12T11:17:35;50781.69;;;-137.44;31.88
26539;BME280;14205;43.200;24.170;2023-08-12T11:20:03;50306.81;;;-137.44;32.81
26539;BME280;14205;43.200;24.170;2023-08-12T11:22:33;50795.72;;;-137.44;31.36
26539;BME280;14205;43.200;24.170;2023-08-12T11:25:00;50811.75;;;-137.44;31.31
26539;BME280;14205;43.200;24.170;2023-08-12T11:27:26;50517.19;;;-137.44;31.75
26539;BME280;14205;43.200;24.170;2023-08-12T11:29:52;50785.69;;;-137.44;31.54
26539;BME280;14205;43.200;24.170;2023-08-12T11:32:20;50905.94;;;-137.44;30.73
26539;BME280;14205;43.200;24.170;2023-08-12T11:34:46;50996.09;;;-137.44;30.87
26539;BME280;14205;43.200;24.170;2023-08-12T11:37:11;50925.97;;;-137.44;30.98
26539;BME280;14205;43.200;24.170;2023-08-12T11:39:37;50739.59;;;-137.44;30.54
26539;BME280;14205;43.200;24.170;2023-08-12T11:42:03;50505.19;;;-137.44;31.09
26539;BME280;14205;43.200;24.170;2023-08-12T11:44:29;50948.00;;;-137.44;28.91
26539;BME280;14205;43.200;24.170;2023-08-12T11:46:54;51036.19;;;-137.44;28.76
26539;BME280;14205;43.200;24.170;2023-08-12T11:49:20;50721.56;;;-137.44;29.72
26539;BME280;14205;43.200;24.170;2023-08-12T11:51:47;50940.00;;;-137.44;28.91
26539;BME280;14205;43.200;24.170;2023-08-12T11:54:14;50739.59;;;-137.44;28.77
26539;BME280;14205;43.200;24.170;2023-08-12T11:56:40;50869.84;;;-137.44;28.69
26539;BME280;14205;43.200;24.170;2023-08-12T11:59:06;50733.59;;;-137.44;29.18
26539;BME280;14205;43.200;24.170;2023-08-12T12:01:31;50841.81;;;-137.44;28.73
26539;BME280;14205;43.200;24.170;2023-08-12T12:04:00;50911.94;;;-137.44;28.07
26539;BME280;14205;43.200;24.170;2023-08-12T12:08:55;50533.22;;;-137.44;29.01
26539;BME280;14205;43.200;24.170;2023-08-12T12:11:20;50505.19;;;-137.44;28.94
26539;BME280;14205;43.200;24.170;2023-08-12T12:13:46;50725.59;;;-137.44;27.44
26539;BME280;14205;43.200;24.170;2023-08-12T12:16:14;50677.50;;;-137.44;27.92
26539;BME280;14205;43.200;24.170;2023-08-12T12:18:40;50517.19;;;-137.44;28.49
26539;BME280;14205;43.200;24.170;2023-08-12T12:21:06;50759.66;;;-137.44;28.89
26539;BME280;14205;43.200;24.170;2023-08-12T12:23:31;50819.75;;;-137.44;27.58
26539;BME280;14205;43.200;24.170;2023-08-12T12:26:05;50685.50;;;-137.44;27.76
26539;BME280;14205;43.200;24.170;2023-08-12T12:28:31;50923.97;;;-137.44;27.17
26539;BME280;14205;43.200;24.170;2023-08-12T12:30:57;51056.22;;;-137.44;28.18
26539;BME280;14205;43.200;24.170;2023-08-12T12:33:22;51248.59;;;-137.44;28.52
26539;BME280;14205;43.200;24.170;2023-08-12T12:35:47;51084.28;;;-137.44;28.93
26539;BME280;14205;43.200;24.170;2023-08-12T12:38:13;51276.66;;;-137.44;28.46
26539;BME280;14205;43.200;24.170;2023-08-12T12:40:38;51240.59;;;-137.44;29.10
26539;BME280;14205;43.200;24.170;2023-08-12T12:43:04;51096.28;;;-137.44;29.13
26539;BME280;14205;43.200;24.170;2023-08-12T12:45:29;51000.09;;;-137.44;28.35
26539;BME280;14205;43.200;24.170;2023-08-12T12:47:54;51070.25;;;-137.44;27.00
26539;BME280;14205;43.200;24.170;2023-08-12T12:50:20;51008.13;;;-137.44;26.75
26539;BME280;14205;43.200;24.170;2023-08-12T12:52:45;51080.25;;;-137.44;26.15
26539;BME280;14205;43.200;24.170;2023-08-12T12:55:11;50825.78;;;-137.44;26.87
26539;BME280;14205;43.200;24.170;2023-08-12T12:57:36;51020.16;;;-137.44;25.60
26539;BME280;14205;43.200;24.170;2023-08-12T13:00:02;51126.34;;;-137.44;25.22
26539;BME280;14205;43.200;24.170;2023-08-12T13:02:29;51004.13;;;-137.44;25.06
26539;BME280;14205;43.200;24.170;2023-08-12T13:04:54;51082.25;;;-137.44;24.28
26539;BME280;14205;43.200;24.170;2023-08-12T13:07:21;51312.72;;;-137.44;24.17
26539;BME280;14205;43.200;24.170;2023-08-12T13:09:46;51070.25;;;-137.44;24.90
26539;BME280;14205;43.200;24.170;2023-08-12T13:12:11;51012.13;;;-137.44;24.85
26539;BME280;14205;43.200;24.170;2023-08-12T13:14:37;51084.28;;;-137.44;24.53
26539;BME280;14205;43.200;24.170;2023-08-12T13:17:02;50940.00;;;-137.44;25.03
26539;BME280;14205;43.200;24.170;2023-08-12T13:19:28;50603.34;;;-137.44;25.91
26539;BME280;14205;43.200;24.170;2023-08-12T13:21:53;51312.72;;;-137.44;24.73
26539;BME280;14205;43.200;24.170;2023-08-12T13:24:19;50883.88;;;-137.44;25.49
26539;BME280;14205;43.200;24.170;2023-08-12T13:26:45;51036.19;;;-137.44;24.26
26539;BME280;14205;43.200;24.170;2023-08-12T13:29:10;50962.03;;;-137.44;24.69
26539;BME280;14205;43.200;24.170;2023-08-12T13:31:36;51481.06;;;-137.44;25.17
26539;BME280;14205;43.200;24.170;2023-08-12T13:34:01;51340.78;;;-137.44;24.50
26539;BME280;14205;43.200;24.170;2023-08-12T13:36:28;51477.06;;;-137.44;24.87
26539;BME280;14205;43.200;24.170;2023-08-12T13:38:53;51525.16;;;-137.44;25.60
26539;BME280;14205;43.200;24.170;2023-08-12T13:41:19;51408.94;;;-137.44;24.54
26539;BME280;14205;43.200;24.170;2023-08-12T13:43:44;51322.75;;;-137.44;24.44
26539;BME280;14205;43.200;24.170;2023-08-12T13:46:09;51228.56;;;-137.44;24.95
26539;BME280;14205;43.200;24.170;2023-08-12T13:48:35;51465.03;;;-137.44;25.01
26539;BME280;14205;43.200;24.170;2023-08-12T13:51:00;51416.94;;;-137.44;24.76
26539;BME280;14205;43.200;24.170;2023-08-12T13:53:26;51274.66;;;-137.44;23.85
26539;BME280;14205;43.200;24.170;2023-08-12T13:55:51;51172.44;;;-137.44;23.58
26539;BME280;14205;43.200;24.170;2023-08-12T13:58:16;51350.81;;;-137.44;23.74
26539;BME280;14205;43.200;24.170;2023-08-12T14:00:42;51426.97;;;-137.44;23.57
26539;BME280;14205;43.200;24.170;2023-08-12T14:03:07;51392.91;;;-137.44;23.22
26539;BME280;14205;43.200;24.170;2023-08-12T14:05:33;51272.66;;;-137.44;23.62
26539;BME280;14205;43.200;24.170;2023-08-12T14:07:58;51350.81;;;-137.44;25.32
26539;BME280;14205;43.200;24.170;2023-08-12T14:10:24;51358.81;;;-137.44;23.66
26539;BME280;14205;43.200;24.170;2023-08-12T14:12:49;51428.97;;;-137.44;23.00
26539;BME280;14205;43.200;24.170;2023-08-12T14:15:15;51430.97;;;-137.44;23.48
26539;BME280;14205;43.200;24.170;2023-08-12T14:17:40;51469.06;;;-137.44;23.35
26539;BME280;14205;43.200;24.170;2023-08-12T14:20:06;51613.34;;;-137.44;23.00
26539;BME280;14205;43.200;24.170;2023-08-12T14:22:34;51647.44;;;-137.44;23.95
26539;BME280;14205;43.200;24.170;2023-08-12T14:25:00;51649.44;;;-137.44;24.56
26539;BME280;14205;43.200;24.170;2023-08-12T14:27:25;51567.25;;;-137.44;23.81
26539;BME280;14205;43.200;24.170;2023-08-12T14:29:50;51627.38;;;-137.44;23.90
26539;BME280;14205;43.200;24.170;2023-08-12T14:32:16;51531.19;;;-137.44;24.22
26539;BME280;14205;43.200;24.170;2023-08-12T14:34:44;51709.56;;;-137.44;24.06
26539;BME280;14205;43.200;24.170;2023-08-12T14:37:12;51621.38;;;-137.44;24.14
26539;BME280;14205;43.200;24.170;2023-08-12T14:39:38;51711.56;;;-137.44;24.32
26539;BME280;14205;43.200;24.170;2023-08-12T14:42:04;51865.91;;;-137.44;24.47
26539;BME280;14205;43.200;24.170;2023-08-12T14:44:30;51745.63;;;-137.44;24.71
26539;BME280;14205;43.200;24.170;2023-08-12T14:47:00;51765.69;;;-137.44;24.25
26539;BME280;14205;43.200;24.170;2023-08-12T14:49:25;51811.78;;;-137.44;24.14
26539;BME280;14205;43.200;24.170;2023-08-12T14:51:51;51603.34;;;-137.44;24.71
26539;BME280;14205;43.200;24.170;2023-08-12T14:54:16;51821.81;;;-137.44;24.12
26539;BME280;14205;43.200;24.170;2023-08-12T14:56:41;51865.91;;;-137.44;24.94
26539;BME280;14205;43.200;24.170;2023-08-12T14:59:07;51677.50;;;-137.44;25.20
26539;BME280;14205;43.200;24.170;2023-08-12T15:01:32;51753.66;;;-137.44;24.84
26539;BME280;14205;43.200;24.170;2023-08-12T15:03:58;51661.47;;;-137.44;24.51
26539;BME280;14205;43.200;24.170;2023-08-12T15:06:23;51823.81;;;-137.44;25.09
26539;BME280;14205;43.200;24.170;2023-08-12T15:08:49;51733.63;;;-137.44;25.10
26539;BME280;14205;43.200;24.170;2023-08-12T15:11:15;51685.50;;;-137.44;25.26
26539;BME280;14205;43.200;24.170;2023-08-12T15:13:40;51765.69;;;-137.44;24.89
26539;BME280;14205;43.200;24.170;2023-08-12T15:16:06;51709.56;;;-137.44;25.37
26539;BME280;14205;43.200;24.170;2023-08-12T15:18:31;51711.56;;;-137.44;25.54
26539;BME280;14205;43.200;24.170;2023-08-12T15:20:57;51705.56;;;-137.44;25.74
26539;BME280;14205;43.200;24.170;2023-08-12T15:23:22;51661.47;;;-137.44;25.93
26539;BME280;14205;43.200;24.170;2023-08-12T15:25:48;51697.53;;;-137.44;26.55
26539;BME280;14205;43.200;24.170;2023-08-12T15:28:13;51745.63;;;-137.44;26.92
26539;BME280;14205;43.200;24.170;2023-08-12T15:30:39;51777.72;;;-137.44;26.87
26539;BME280;14205;43.200;24.170;2023-08-12T15:33:05;51749.66;;;-137.44;27.51
26539;BME280;14205;43.200;24.170;2023-08-12T15:35:31;51725.59;;;-137.44;27.74
26539;BME280;14205;43.200;24.170;2023-08-12T15:37:56;51683.50;;;-137.44;27.81
26539;BME280;14205;43.200;24.170;2023-08-12T15:40:21;51663.47;;;-137.44;28.08
26539;BME280;14205;43.200;24.170;2023-08-12T15:42:47;51581.28;;;-137.44;28.38
26539;BME280;14205;43.200;24.170;2023-08-12T15:45:15;51519.16;;;-137.44;28.70
26539;BME280;14205;43.200;24.170;2023-08-12T15:47:40;51573.28;;;-137.44;29.18
26539;BME280;14205;43.200;24.170;2023-08-12T15:50:07;51547.22;;;-137.44;29.13
26539;BME280;14205;43.200;24.170;2023-08-12T15:52:32;51577.28;;;-137.44;29.37
26539;BME280;14205;43.200;24.170;2023-08-12T15:55:01;51577.28;;;-137.44;29.42
26539;BME280;14205;43.200;24.170;2023-08-12T15:57:26;51457.03;;;-137.44;29.97
26539;BME280;14205;43.200;24.170;2023-08-12T15:59:52;51489.09;;;-137.44;29.90
26539;BME280;14205;43.200;24.170;2023-08-12T16:02:17;51505.13;;;-137.44;30.37
26539;BME280;14205;43.200;24.170;2023-08-12T16:04:42;51487.09;;;-137.44;30.54
26539;BME280;14205;43.200;24.170;2023-08-12T16:07:08;51475.06;;;-137.44;30.77
26539;BME280;14205;43.200;24.170;2023-08-12T16:09:33;51368.84;;;-137.44;31.01
26539;BME280;14205;43.200;24.170;2023-08-12T16:11:59;51330.75;;;-137.44;31.03
26539;BME280;14205;43.200;24.170;2023-08-12T16:14:24;51348.81;;;-137.44;31.06
26539;BME280;14205;43.200;24.170;2023-08-12T16:16:50;51290.69;;;-137.44;31.89
26539;BME280;14205;43.200;24.170;2023-08-12T16:19:16;51368.84;;;-137.44;31.83
26539;BME280;14205;43.200;24.170;2023-08-12T16:21:41;51316.75;;;-137.44;32.13
26539;BME280;14205;43.200;24.170;2023-08-12T16:24:07;51236.56;;;-137.44;32.60
26539;BME280;14205;43.200;24.170;2023-08-12T16:26:33;51190.47;;;-137.44;32.59
26539;BME280;14205;43.200;24.170;2023-08-12T16:28:58;51108.31;;;-137.44;33.56
26539;BME280;14205;43.200;24.170;2023-08-12T16:31:24;51024.16;;;-137.44;33.87
26539;BME280;14205;43.200;24.170;2023-08-12T16:33:50;51060.22;;;-137.44;34.15
26539;BME280;14205;43.200;24.170;2023-08-12T16:36:15;50942.00;;;-137.44;34.73
26539;BME280;14205;43.200;24.170;2023-08-12T16:38:40;50948.00;;;-137.44;34.92
26539;BME280;14205;43.200;24.170;2023-08-12T16:41:06;50935.97;;;-137.44;35.48
26539;BME280;14205;43.200;24.170;2023-08-12T16:43:32;50859.84;;;-137.44;35.91
26539;BME280;14205;43.200;24.170;2023-08-12T16:45:57;50879.88;;;-137.44;35.65
26539;BME280;14205;43.200;24.170;2023-08-12T16:48:23;50899.91;;;-137.44;36.04
26539;BME280;14205;43.200;24.170;2023-08-12T16:50:48;50815.75;;;-137.44;36.73
26539;BME280;14205;43.200;24.170;2023-08-12T16:53:14;50819.75;;;-137.44;37.22
26539;BME280;14205;43.200;24.170;2023-08-12T16:55:39;50889.88;;;-137.44;36.80
26539;BME280;14205;43.200;24.170;2023-08-12T16:58:04;50859.84;;;-137.44;36.86
26539;BME280;14205;43.200;24.170;2023-08-12T17:00:30;50833.78;;;-137.44;37.60
26539;BME280;14205;43.200;24.170;2023-08-12T17:02:56;50715.56;;;-137.44;38.11
26539;BME280;14205;43.200;24.170;2023-08-12T17:05:22;50607.38;;;-137.44;39.69
26539;BME280;14205;43.200;24.170;2023-08-12T17:07:47;50623.41;;;-137.44;39.61
26539;BME280;14205;43.200;24.170;2023-08-12T17:10:12;50535.22;;;-137.44;40.55
26539;BME280;14205;43.200;24.170;2023-08-12T17:12:38;50559.28;;;-137.44;40.69
26539;BME280;14205;43.200;24.170;2023-08-12T17:15:03;50348.91;;;-137.44;43.84
26539;BME280;14205;43.200;24.170;2023-08-12T17:17:29;50378.94;;;-137.44;43.68
26539;BME280;14205;43.200;24.170;2023-08-12T17:19:54;50274.78;;;-137.44;44.80
26539;BME280;14205;43.200;24.170;2023-08-12T17:22:20;50322.84;;;-137.44;45.02
26539;BME280;14205;43.200;24.170;2023-08-12T17:24:45;50292.81;;;-137.44;45.51
26539;BME280;14205;43.200;24.170;2023-08-12T17:27:10;50274.78;;;-137.44;46.73
26539;BME280;14205;43.200;24.170;2023-08-12T17:29:36;50284.78;;;-137.44;46.79
26539;BME280;14205;43.200;24.170;2023-08-12T17:32:01;50370.94;;;-137.44;45.93
26539;BME280;14205;43.200;24.170;2023-08-12T17:34:27;50342.88;;;-137.44;46.69
26539;BME280;14205;43.200;24.170;2023-08-12T17:36:52;50370.94;;;-137.44;47.11
26539;BME280;14205;43.200;24.170;2023-08-12T17:39:17;50318.84;;;-137.44;48.10
26539;BME280;14205;43.200;24.170;2023-08-12T17:41:43;50268.75;;;-137.44;49.30
26539;BME280;14205;43.200;24.170;2023-08-12T17:44:08;50250.72;;;-137.44;49.99
26539;BME280;14205;43.200;24.170;2023-08-12T17:46:34;50230.69;;;-137.44;50.31
26539;BME280;14205;43.200;24.170;2023-08-12T17:49:00;50138.53;;;-137.44;52.02
26539;BME280;14205;43.200;24.170;2023-08-12T17:51:25;50068.41;;;-137.44;55.91
26539;BME280;14205;43.200;24.170;2023-08-12T17:53:51;49978.28;;;-137.44;57.25
26539;BME280;14205;43.200;24.170;2023-08-12T17:56:17;49898.13;;;-137.44;58.77
26539;BME280;14205;43.200;24.170;2023-08-12T17:58:43;49872.09;;;-137.44;57.40
26539;BME280;14205;43.200;24.170;2023-08-12T18:01:09;49872.09;;;-137.44;59.28
26539;BME280;14205;43.200;24.170;2023-08-12T18:03:34;49799.97;;;-137.44;62.31
26539;BME280;14205;43.200;24.170;2023-08-12T18:06:00;49619.69;;;-137.44;66.75
26539;BME280;14205;43.200;24.170;2023-08-12T18:08:26;49551.59;;;-137.44;67.54
26539;BME280;14205;43.200;24.170;2023-08-12T18:10:51;49555.59;;;-137.44;68.70
26539;BME280;14205;43.200;24.170;2023-08-12T18:13:17;49341.28;;;-137.44;71.34
26539;BME280;14205;43.200;24.170;2023-08-12T18:15:42;49357.31;;;-137.44;70.91
26539;BME280;14205;43.200;24.170;2023-08-12T18:18:07;48992.78;;;-137.44;82.04
26539;BME280;14205;43.200;24.170;2023-08-12T18:20:33;48880.63;;;-137.44;85.50
26539;BME280;14205;43.200;24.170;2023-08-12T18:22:58;48828.56;;;-137.44;82.35
26539;BME280;14205;43.200;24.170;2023-08-12T18:25:24;48876.63;;;-137.44;80.28
26539;BME280;14205;43.200;24.170;2023-08-12T18:27:50;48834.56;;;-137.44;80.88
26539;BME280;14205;43.200;24.170;2023-08-12T18:30:15;48814.56;;;-137.44;80.78
26539;BME280;14205;43.200;24.170;2023-08-12T18:32:41;48764.50;;;-137.44;83.07